sensor_id;sensor_type;location;lat;lon;timestamp;pressure;altitude;pressure_sealevel;temperature;humidity
33163;BME280;29282;45.656;11.302;2022-08-19T00:01:29;97794.81;;;25.13;53.63
33163;BME280;29282;45.656;11.302;2022-08-19T00:04:01;97796.81;;;25.13;53.61
33163;BME280;29282;45.656;11.302;2022-08-19T00:06:28;97789.28;;;25.13;53.67
33163;BME280;29282;45.656;11.302;2022-08-19T00:08:54;97781.38;;;25.12;53.69
33163;BME280;29282;45.656;11.302;2022-08-19T00:11:20;97780.56;;;25.11;53.50
33163;BME280;29282;45.656;11.302;2022-08-19T00:13:46;97787.69;;;25.12;53.71
33163;BME280;29282;45.656;11.302;2022-08-19T00:16:14;97805.50;;;25.11;53.86
33163;BME280;29282;45.656;11.302;2022-08-19T00:18:39;97817.41;;;25.12;53.67
33163;BME280;29282;45.656;11.302;2022-08-19T00:21:05;97840.38;;;25.12;53.48
33163;BME280;29282;45.656;11.302;2022-08-19T00:23:35;97838.38;;;25.13;53.49
33163;BME280;29282;45.656;11.302;2022-08-19T00:26:03;97811.03;;;25.11;53.63
33163;BME280;29282;45.656;11.302;2022-08-19T00:28:28;97788.06;;;25.11;53.51
33163;BME280;29282;45.656;11.302;2022-08-19T00:30:54;97762.34;;;25.10;53.40
33163;BME280;29282;45.656;11.302;2022-08-19T00:33:20;97751.25;;;25.10;53.60
33163;BME280;29282;45.656;11.302;2022-08-19T00:35:46;97762.34;;;25.10;53.55
33163;BME280;29282;45.656;11.302;2022-08-19T00:38:12;97775.00;;;25.11;53.58
33163;BME280;29282;45.656;11.302;2022-08-19T00:40:37;97790.84;;;25.11;53.40
33163;BME280;29282;45.656;11.302;2022-08-19T00:43:10;97815.41;;;25.12;53.50
33163;BME280;29282;45.656;11.302;2022-08-19T00:45:39;97832.84;;;25.13;53.51
33163;BME280;29282;45.656;11.302;2022-08-19T00:48:07;97820.19;;;25.12;53.62
33163;BME280;29282;45.656;11.302;2022-08-19T00:50:33;97794.41;;;25.11;53.53
33163;BME280;29282;45.656;11.302;2022-08-19T00:53:00;97744.09;;;25.09;53.61
33163;BME280;29282;45.656;11.302;2022-08-19T00:55:30;97696.59;;;25.07;53.71
33163;BME280;29282;45.656;11.302;2022-08-19T00:58:10;97668.88;;;25.07;53.62
33163;BME280;29282;45.656;11.302;2022-08-19T01:00:38;97634.81;;;25.06;53.52
33163;BME280;29282;45.656;11.302;2022-08-19T01:03:10;97575.03;;;25.05;53.52
33163;BME280;29282;45.656;11.302;2022-08-19T01:05:36;97529.91;;;25.05;53.59
33163;BME280;29282;45.656;11.302;2022-08-19T01:08:04;97549.69;;;25.07;53.36
33163;BME280;29282;45.656;11.302;2022-08-19T01:10:37;97609.47;;;25.08;53.34
33163;BME280;29282;45.656;11.302;2022-08-19T01:13:07;97652.25;;;25.11;53.41
33163;BME280;29282;45.656;11.302;2022-08-19T01:15:50;97686.31;;;25.11;53.30
33163;BME280;29282;45.656;11.302;2022-08-19T01:18:19;97731.47;;;25.12;53.30
33163;BME280;29282;45.656;11.302;2022-08-19T01:20:46;97773.84;;;25.12;53.35
33163;BME280;29282;45.656;11.302;2022-08-19T01:23:12;97804.34;;;25.12;53.21
33163;BME280;29282;45.656;11.302;2022-08-19T01:25:46;97810.66;;;25.13;53.17
33163;BME280;29282;45.656;11.302;2022-08-19T01:28:25;97815.41;;;25.12;53.22
33163;BME280;29282;45.656;11.302;2022-08-19T01:30:52;97824.09;;;25.11;53.33
33163;BME280;29282;45.656;11.302;2022-08-19T01:33:21;97839.94;;;25.10;53.34
33163;BME280;29282;45.656;11.302;2022-08-19T01:35:47;97862.91;;;25.11;53.53
33163;BME280;29282;45.656;11.302;2022-08-19T01:38:26;97844.69;;;25.09;53.55
33163;BME280;29282;45.656;11.302;2022-08-19T01:40:52;97814.59;;;25.08;53.56
33163;BME280;29282;45.656;11.302;2022-08-19T01:43:21;97829.25;;;25.08;53.30
33163;BME280;29282;45.656;11.302;2022-08-19T01:45:46;97847.84;;;25.08;53.40
33163;BME280;29282;45.656;11.302;2022-08-19T01:48:13;97832.00;;;25.08;53.50
33163;BME280;29282;45.656;11.302;2022-08-19T01:50:38;97786.09;;;25.07;53.42
33163;BME280;29282;45.656;11.302;2022-08-19T01:53:07;97738.19;;;25.07;53.42
33163;BME280;29282;45.656;11.302;2022-08-19T01:55:34;97758.75;;;25.06;53.48
33163;BME280;29282;45.656;11.302;2022-08-19T01:58:03;97798.75;;;25.08;53.36
33163;BME280;29282;45.656;11.302;2022-08-19T02:00:31;97797.97;;;25.08;53.46
33163;BME280;29282;45.656;11.302;2022-08-19T02:02:57;97782.13;;;25.08;53.36
33163;BME280;29282;45.656;11.302;2022-08-19T02:05:23;97806.28;;;25.08;53.41
33163;BME280;29282;45.656;11.302;2022-08-19T02:07:49;97823.31;;;25.10;53.44
33163;BME280;29282;45.656;11.302;2022-08-19T02:10:19;97805.09;;;25.09;53.36
33163;BME280;29282;45.656;11.302;2022-08-19T02:12:46;97779.75;;;25.07;53.58
33163;BME280;29282;45.656;11.302;2022-08-19T02:15:12;97756.38;;;25.08;53.38
33163;BME280;29282;45.656;11.302;2022-08-19T02:17:38;97728.25;;;25.06;53.34
33163;BME280;29282;45.656;11.302;2022-08-19T02:20:05;97702.53;;;25.05;53.63
33163;BME280;29282;45.656;11.302;2022-08-19T02:22:32;97698.56;;;25.06;53.51
33163;BME280;29282;45.656;11.302;2022-08-19T02:24:58;97696.59;;;25.07;53.34
33163;BME280;29282;45.656;11.302;2022-08-19T02:27:24;97700.53;;;25.06;53.40
33163;BME280;29282;45.656;11.302;2022-08-19T02:29:51;97703.31;;;25.06;53.40
33163;BME280;29282;45.656;11.302;2022-08-19T02:32:20;97714.03;;;25.07;53.50
33163;BME280;29282;45.656;11.302;2022-08-19T02:34:46;97722.34;;;25.07;53.29
33163;BME280;29282;45.656;11.302;2022-08-19T02:37:12;97732.63;;;25.07;53.58
33163;BME280;29282;45.656;11.302;2022-08-19T02:39:55;97740.94;;;25.07;53.37
33163;BME280;29282;45.656;11.302;2022-08-19T02:42:21;97729.03;;;25.06;53.44
33163;BME280;29282;45.656;11.302;2022-08-19T02:44:47;97719.94;;;25.06;53.52
33163;BME280;29282;45.656;11.302;2022-08-19T02:47:12;97703.31;;;25.06;53.48
33163;BME280;29282;45.656;11.302;2022-08-19T02:49:40;97681.13;;;25.06;53.52
33163;BME280;29282;45.656;11.302;2022-08-19T02:52:06;97649.06;;;25.05;53.67
33163;BME280;29282;45.656;11.302;2022-08-19T02:54:31;97660.16;;;25.05;53.58
33163;BME280;29282;45.656;11.302;2022-08-19T02:56:57;97699.75;;;25.05;53.64
33163;BME280;29282;45.656;11.302;2022-08-19T02:59:22;97721.53;;;25.07;53.44
33163;BME280;29282;45.656;11.302;2022-08-19T03:01:48;97723.50;;;25.06;53.53
33163;BME280;29282;45.656;11.302;2022-08-19T03:04:15;97717.16;;;25.06;53.62
33163;BME280;29282;45.656;11.302;2022-08-19T03:06:44;97713.59;;;25.05;53.56
33163;BME280;29282;45.656;11.302;2022-08-19T03:09:10;97708.47;;;25.04;53.50
33163;BME280;29282;45.656;11.302;2022-08-19T03:11:37;97703.31;;;25.06;53.50
33163;BME280;29282;45.656;11.302;2022-08-19T03:14:07;97698.97;;;25.05;53.65
33163;BME280;29282;45.656;11.302;2022-08-19T03:16:41;97700.16;;;25.04;53.37
33163;BME280;29282;45.656;11.302;2022-08-19T03:19:07;97694.63;;;25.04;53.57
33163;BME280;29282;45.656;11.302;2022-08-19T03:21:33;97700.16;;;25.04;53.44
33163;BME280;29282;45.656;11.302;2022-08-19T03:24:02;97702.94;;;25.04;53.36
33163;BME280;29282;45.656;11.302;2022-08-19T03:26:29;97704.91;;;25.03;53.55
33163;BME280;29282;45.656;11.302;2022-08-19T03:28:55;97713.59;;;25.05;53.46
33163;BME280;29282;45.656;11.302;2022-08-19T03:31:22;97713.22;;;25.03;53.36
33163;BME280;29282;45.656;11.302;2022-08-19T03:33:50;97702.13;;;25.03;53.51
33163;BME280;29282;45.656;11.302;2022-08-19T03:36:19;97702.94;;;25.04;53.31
33163;BME280;29282;45.656;11.302;2022-08-19T03:38:50;97711.25;;;25.04;53.42
33163;BME280;29282;45.656;11.302;2022-08-19T03:41:20;97713.22;;;25.03;53.44
33163;BME280;29282;45.656;11.302;2022-08-19T03:43:47;97726.25;;;25.03;53.36
33163;BME280;29282;45.656;11.302;2022-08-19T03:46:16;97733.41;;;25.04;53.40
33163;BME280;29282;45.656;11.302;2022-08-19T03:48:43;97743.72;;;25.03;53.61
33163;BME280;29282;45.656;11.302;2022-08-19T03:51:23;97755.59;;;25.04;53.54
33163;BME280;29282;45.656;11.302;2022-08-19T03:53:50;97755.59;;;25.04;53.39
33163;BME280;29282;45.656;11.302;2022-08-19T03:56:17;97763.13;;;25.03;53.54
33163;BME280;29282;45.656;11.302;2022-08-19T03:58:43;97763.13;;;25.03;53.36
33163;BME280;29282;45.656;11.302;2022-08-19T04:01:13;97772.22;;;25.04;53.19
33163;BME280;29282;45.656;11.302;2022-08-19T04:03:39;97780.53;;;25.04;53.41
33163;BME280;29282;45.656;11.302;2022-08-19T04:06:10;97778.94;;;25.03;53.46
33163;BME280;29282;45.656;11.302;2022-08-19T04:08:36;97792.78;;;25.03;53.23
33163;BME280;29282;45.656;11.302;2022-08-19T04:11:06;97790.00;;;25.03;53.49
33163;BME280;29282;45.656;11.302;2022-08-19T04:13:33;97793.97;;;25.02;53.51
33163;BME280;29282;45.656;11.302;2022-08-19T04:15:59;97800.31;;;25.02;53.43
33163;BME280;29282;45.656;11.302;2022-08-19T04:18:25;97798.72;;;25.01;53.34
33163;BME280;29282;45.656;11.302;2022-08-19T04:20:51;97801.50;;;25.01;53.37
33163;BME280;29282;45.656;11.302;2022-08-19T04:23:17;97813.38;;;25.02;53.59
33163;BME280;29282;45.656;11.302;2022-08-19T04:25:44;97814.16;;;25.02;53.19
33163;BME280;29282;45.656;11.302;2022-08-19T04:28:12;97813.38;;;25.02;53.23
33163;BME280;29282;45.656;11.302;2022-08-19T04:30:46;97823.66;;;25.01;53.26
33163;BME280;29282;45.656;11.302;2022-08-19T04:33:14;97827.22;;;25.02;53.39
33163;BME280;29282;45.656;11.302;2022-08-19T04:35:46;97835.56;;;25.02;53.30
33163;BME280;29282;45.656;11.302;2022-08-19T04:38:13;97832.78;;;25.02;53.38
33163;BME280;29282;45.656;11.302;2022-08-19T04:40:44;97839.50;;;25.01;53.38
33163;BME280;29282;45.656;11.302;2022-08-19T04:43:28;97822.88;;;25.01;53.50
33163;BME280;29282;45.656;11.302;2022-08-19T04:45:57;97819.31;;;25.00;53.23
33163;BME280;29282;45.656;11.302;2022-08-19T04:48:23;97817.72;;;24.99;53.18
33163;BME280;29282;45.656;11.302;2022-08-19T04:50:54;97825.66;;;25.01;53.13
33163;BME280;29282;45.656;11.302;2022-08-19T04:53:27;97822.88;;;25.01;53.25
33163;BME280;29282;45.656;11.302;2022-08-19T04:55:55;97829.22;;;25.01;53.32
33163;BME280;29282;45.656;11.302;2022-08-19T04:58:21;97834.75;;;25.01;53.14
33163;BME280;29282;45.656;11.302;2022-08-19T05:00:47;97847.81;;;25.01;53.11
33163;BME280;29282;45.656;11.302;2022-08-19T05:03:12;97850.59;;;25.01;53.33
33163;BME280;29282;45.656;11.302;2022-08-19T05:05:41;97849.81;;;25.00;53.24
33163;BME280;29282;45.656;11.302;2022-08-19T05:08:07;97853.38;;;25.01;53.25
33163;BME280;29282;45.656;11.302;2022-08-19T05:10:37;97858.91;;;25.01;53.48
33163;BME280;29282;45.656;11.302;2022-08-19T05:13:03;97849.00;;;25.00;53.25
33163;BME280;29282;45.656;11.302;2022-08-19T05:15:29;97843.44;;;25.00;53.32
33163;BME280;29282;45.656;11.302;2022-08-19T05:17:55;97839.88;;;24.99;53.22
33163;BME280;29282;45.656;11.302;2022-08-19T05:20:41;97833.56;;;24.99;53.17
33163;BME280;29282;45.656;11.302;2022-08-19T05:23:25;97826.03;;;24.99;53.02
33163;BME280;29282;45.656;11.302;2022-08-19T05:25:51;97824.03;;;25.00;53.02
33163;BME280;29282;45.656;11.302;2022-08-19T05:28:18;97821.28;;;25.00;53.12
33163;BME280;29282;45.656;11.302;2022-08-19T05:30:44;97821.28;;;25.00;52.97
33163;BME280;29282;45.656;11.302;2022-08-19T05:33:10;97806.63;;;25.03;52.94
33163;BME280;29282;45.656;11.302;2022-08-19T05:35:38;97789.69;;;25.12;52.84
33163;BME280;29282;45.656;11.302;2022-08-19T05:38:07;97771.88;;;25.16;52.71
33163;BME280;29282;45.656;11.302;2022-08-19T05:40:39;97772.28;;;25.18;52.67
33163;BME280;29282;45.656;11.302;2022-08-19T05:43:06;97763.19;;;25.21;52.70
33163;BME280;29282;45.656;11.302;2022-08-19T05:45:37;97772.69;;;25.24;52.58
33163;BME280;29282;45.656;11.302;2022-08-19T05:48:03;97773.88;;;25.26;52.52
33163;BME280;29282;45.656;11.302;2022-08-19T05:50:28;97781.81;;;25.28;52.49
33163;BME280;29282;45.656;11.302;2022-08-19T05:52:54;97769.50;;;25.25;52.48
33163;BME280;29282;45.656;11.302;2022-08-19T05:55:20;97769.09;;;25.16;52.52
33163;BME280;29282;45.656;11.302;2022-08-19T05:57:47;97775.41;;;25.13;52.86
33163;BME280;29282;45.656;11.302;2022-08-19T06:00:13;97773.06;;;25.12;52.87
33163;BME280;29282;45.656;11.302;2022-08-19T06:02:39;97765.13;;;25.10;52.91
33163;BME280;29282;45.656;11.302;2022-08-19T06:05:06;97754.41;;;25.08;53.07
33163;BME280;29282;45.656;11.302;2022-08-19T06:07:35;97752.03;;;25.07;53.06
33163;BME280;29282;45.656;11.302;2022-08-19T06:10:04;97733.00;;;25.05;52.89
33163;BME280;29282;45.656;11.302;2022-08-19T06:12:31;97721.13;;;25.05;52.86
33163;BME280;29282;45.656;11.302;2022-08-19T06:15:00;97723.91;;;25.05;52.92
33163;BME280;29282;45.656;11.302;2022-08-19T06:17:27;97730.63;;;25.04;53.03
33163;BME280;29282;45.656;11.302;2022-08-19T06:19:52;97741.72;;;25.04;52.89
33163;BME280;29282;45.656;11.302;2022-08-19T06:22:18;97736.19;;;25.04;52.88
33163;BME280;29282;45.656;11.302;2022-08-19T06:24:43;97735.41;;;25.03;52.80
33163;BME280;29282;45.656;11.302;2022-08-19T06:27:09;97730.63;;;25.04;53.02
33163;BME280;29282;45.656;11.302;2022-08-19T06:29:35;97729.03;;;25.03;53.09
33163;BME280;29282;45.656;11.302;2022-08-19T06:32:02;97717.16;;;25.02;53.06
33163;BME280;29282;45.656;11.302;2022-08-19T06:34:30;97708.06;;;25.02;53.01
33163;BME280;29282;45.656;11.302;2022-08-19T06:36:57;97704.50;;;25.01;52.80
33163;BME280;29282;45.656;11.302;2022-08-19T06:39:32;97712.03;;;25.01;52.91
33163;BME280;29282;45.656;11.302;2022-08-19T06:42:00;97711.63;;;25.02;53.07
33163;BME280;29282;45.656;11.302;2022-08-19T06:44:30;97716.38;;;25.02;52.99
33163;BME280;29282;45.656;11.302;2022-08-19T06:47:02;97723.09;;;25.01;52.83
33163;BME280;29282;45.656;11.302;2022-08-19T06:49:27;97732.22;;;25.01;52.85
33163;BME280;29282;45.656;11.302;2022-08-19T06:51:56;97741.31;;;25.02;52.88
33163;BME280;29282;45.656;11.302;2022-08-19T06:54:22;97738.53;;;25.02;52.88
33163;BME280;29282;45.656;11.302;2022-08-19T06:56:48;97739.31;;;24.99;53.50
33163;BME280;29282;45.656;11.302;2022-08-19T06:59:17;97747.63;;;24.95;53.19
33163;BME280;29282;45.656;11.302;2022-08-19T07:01:52;97749.19;;;24.93;53.54
33163;BME280;29282;45.656;11.302;2022-08-19T07:04:23;97746.81;;;24.88;54.82
33163;BME280;29282;45.656;11.302;2022-08-19T07:06:50;97748.38;;;24.81;54.95
33163;BME280;29282;45.656;11.302;2022-08-19T07:09:17;97752.72;;;24.79;55.01
33163;BME280;29282;45.656;11.302;2022-08-19T07:11:47;97757.88;;;24.77;54.96
33163;BME280;29282;45.656;11.302;2022-08-19T07:14:13;97768.56;;;24.82;55.07
33163;BME280;29282;45.656;11.302;2022-08-19T07:16:39;97772.13;;;24.86;54.76
33163;BME280;29282;45.656;11.302;2022-08-19T07:19:05;97779.66;;;24.85;54.56
33163;BME280;29282;45.656;11.302;2022-08-19T07:21:31;97778.88;;;24.89;54.75
33163;BME280;29282;45.656;11.302;2022-08-19T07:23:59;97786.00;;;24.90;54.74
33163;BME280;29282;45.656;11.302;2022-08-19T07:26:28;97789.59;;;24.90;54.74
33163;BME280;29282;45.656;11.302;2022-08-19T07:28:55;97787.63;;;24.91;54.87
33163;BME280;29282;45.656;11.302;2022-08-19T07:31:23;97794.31;;;24.90;55.26
33163;BME280;29282;45.656;11.302;2022-08-19T07:33:51;97795.09;;;24.87;55.36
33163;BME280;29282;45.656;11.302;2022-08-19T07:36:24;97794.72;;;24.88;54.92
33163;BME280;29282;45.656;11.302;2022-08-19T07:38:51;97791.94;;;24.88;54.91
33163;BME280;29282;45.656;11.302;2022-08-19T07:41:25;97792.75;;;24.89;55.10
33163;BME280;29282;45.656;11.302;2022-08-19T07:43:51;97789.19;;;24.88;55.11
33163;BME280;29282;45.656;11.302;2022-08-19T07:46:18;97787.97;;;24.89;55.13
33163;BME280;29282;45.656;11.302;2022-08-19T07:48:46;97785.22;;;24.89;55.16
33163;BME280;29282;45.656;11.302;2022-08-19T07:51:13;97789.97;;;24.89;55.11
33163;BME280;29282;45.656;11.302;2022-08-19T07:53:39;97793.94;;;24.88;55.31
33163;BME280;29282;45.656;11.302;2022-08-19T07:56:05;97795.50;;;24.89;55.45
33163;BME280;29282;45.656;11.302;2022-08-19T07:58:33;97795.50;;;24.89;55.12
33163;BME280;29282;45.656;11.302;2022-08-19T08:01:00;97790.75;;;24.85;55.40
33163;BME280;29282;45.656;11.302;2022-08-19T08:03:27;97792.31;;;24.87;55.33
33163;BME280;29282;45.656;11.302;2022-08-19T08:06:12;97802.25;;;24.88;55.42
33163;BME280;29282;45.656;11.302;2022-08-19T08:09:01;97805.81;;;24.88;55.67
33163;BME280;29282;45.656;11.302;2022-08-19T08:11:40;97804.22;;;24.87;55.43
33163;BME280;29282;45.656;11.302;2022-08-19T08:14:07;97803.41;;;24.87;55.67
33163;BME280;29282;45.656;11.302;2022-08-19T08:16:36;97807.00;;;24.87;55.57
33163;BME280;29282;45.656;11.302;2022-08-19T08:19:04;97812.91;;;24.85;55.75
33163;BME280;29282;45.656;11.302;2022-08-19T08:21:31;97814.09;;;24.84;55.70
33163;BME280;29282;45.656;11.302;2022-08-19T08:23:57;97821.63;;;24.84;55.26
33163;BME280;29282;45.656;11.302;2022-08-19T08:26:23;97837.47;;;24.83;55.66
33163;BME280;29282;45.656;11.302;2022-08-19T08:28:50;97835.47;;;24.84;55.17
33163;BME280;29282;45.656;11.302;2022-08-19T08:31:16;97829.94;;;24.84;55.79
33163;BME280;29282;45.656;11.302;2022-08-19T08:33:41;97835.88;;;24.86;55.72
33163;BME280;29282;45.656;11.302;2022-08-19T08:36:08;97838.63;;;24.86;55.27
33163;BME280;29282;45.656;11.302;2022-08-19T08:38:36;97834.31;;;24.89;55.28
33163;BME280;29282;45.656;11.302;2022-08-19T08:41:31;97839.47;;;24.90;55.35
33163;BME280;29282;45.656;11.302;2022-08-19T08:43:55;97835.88;;;24.90;55.50
33163;BME280;29282;45.656;11.302;2022-08-19T08:46:24;97839.47;;;24.90;55.57
33163;BME280;29282;45.656;11.302;2022-08-19T08:48:57;97822.03;;;24.90;55.56
33163;BME280;29282;45.656;11.302;2022-08-19T08:51:46;97810.16;;;24.89;55.45
33163;BME280;29282;45.656;11.302;2022-08-19T08:54:16;97831.16;;;24.90;55.39
33163;BME280;29282;45.656;11.302;2022-08-19T08:56:46;97842.25;;;24.90;55.38
33163;BME280;29282;45.656;11.302;2022-08-19T08:59:26;97819.25;;;24.90;55.31
33163;BME280;29282;45.656;11.302;2022-08-19T09:01:53;97832.31;;;24.89;55.37
33163;BME280;29282;45.656;11.302;2022-08-19T09:04:19;97845.38;;;24.89;55.38
33163;BME280;29282;45.656;11.302;2022-08-19T09:07:15;97841.41;;;24.90;55.43
33163;BME280;29282;45.656;11.302;2022-08-19T09:09:49;97847.78;;;24.90;55.42
33163;BME280;29282;45.656;11.302;2022-08-19T09:15:11;97865.56;;;24.89;55.38
33163;BME280;29282;45.656;11.302;2022-08-19T09:17:37;97869.94;;;24.90;55.36
33163;BME280;29282;45.656;11.302;2022-08-19T09:22:32;97885.75;;;24.90;55.45
33163;BME280;29282;45.656;11.302;2022-08-19T09:24:59;97896.06;;;24.89;55.26
33163;BME280;29282;45.656;11.302;2022-08-19T09:27:28;97894.06;;;24.90;55.18
33163;BME280;29282;45.656;11.302;2022-08-19T09:29:55;97884.97;;;24.89;55.02
33163;BME280;29282;45.656;11.302;2022-08-19T09:32:21;97885.75;;;24.90;55.38
33163;BME280;29282;45.656;11.302;2022-08-19T09:34:47;97879.84;;;24.88;55.40
33163;BME280;29282;45.656;11.302;2022-08-19T09:37:14;97880.63;;;24.88;55.26
33163;BME280;29282;45.656;11.302;2022-08-19T09:39:42;97865.97;;;24.88;54.92
33163;BME280;29282;45.656;11.302;2022-08-19T09:42:08;97832.72;;;24.88;55.18
33163;BME280;29282;45.656;11.302;2022-08-19T09:44:42;97806.19;;;24.87;55.18
33163;BME280;29282;45.656;11.302;2022-08-19T09:47:09;97792.31;;;24.87;55.14
33163;BME280;29282;45.656;11.302;2022-08-19T09:49:36;97786.78;;;24.87;55.02
33163;BME280;29282;45.656;11.302;2022-08-19T09:52:03;97766.59;;;24.86;55.18
33163;BME280;29282;45.656;11.302;2022-08-19T09:54:28;97765.44;;;24.87;54.95
33163;BME280;29282;45.656;11.302;2022-08-19T09:56:55;97770.97;;;24.87;55.16
33163;BME280;29282;45.656;11.302;2022-08-19T09:59:26;97782.84;;;24.88;54.98
33163;BME280;29282;45.656;11.302;2022-08-19T10:01:52;97773.34;;;24.89;55.09
33163;BME280;29282;45.656;11.302;2022-08-19T10:04:17;97774.53;;;24.88;55.00
33163;BME280;29282;45.656;11.302;2022-08-19T10:06:43;97769.78;;;24.88;55.12
33163;BME280;29282;45.656;11.302;2022-08-19T10:09:10;97761.47;;;24.88;54.89
33163;BME280;29282;45.656;11.302;2022-08-19T10:11:39;97762.25;;;24.89;54.98
33163;BME280;29282;45.656;11.302;2022-08-19T10:14:06;97753.94;;;24.89;54.90
33163;BME280;29282;45.656;11.302;2022-08-19T10:16:32;97765.03;;;24.89;55.06
33163;BME280;29282;45.656;11.302;2022-08-19T10:18:58;97759.50;;;24.89;54.93
33163;BME280;29282;45.656;11.302;2022-08-19T10:21:27;97774.91;;;24.90;54.98
33163;BME280;29282;45.656;11.302;2022-08-19T10:23:57;97772.16;;;24.90;55.04
33163;BME280;29282;45.656;11.302;2022-08-19T10:26:28;97770.19;;;24.90;55.15
33163;BME280;29282;45.656;11.302;2022-08-19T10:28:54;97763.84;;;24.90;54.85
33163;BME280;29282;45.656;11.302;2022-08-19T10:31:23;97763.03;;;24.89;55.04
33163;BME280;29282;45.656;11.302;2022-08-19T10:33:50;97758.28;;;24.90;54.81
33163;BME280;29282;45.656;11.302;2022-08-19T10:36:21;97744.84;;;24.88;54.92
33163;BME280;29282;45.656;11.302;2022-08-19T10:38:52;97749.97;;;24.90;55.00
33163;BME280;29282;45.656;11.302;2022-08-19T10:41:21;97751.97;;;24.89;54.73
33163;BME280;29282;45.656;11.302;2022-08-19T10:43:51;97747.22;;;24.90;54.76
33163;BME280;29282;45.656;11.302;2022-08-19T10:46:21;97745.25;;;24.90;54.78
33163;BME280;29282;45.656;11.302;2022-08-19T10:48:47;97738.91;;;24.90;54.74
33163;BME280;29282;45.656;11.302;2022-08-19T10:51:13;97746.41;;;24.89;54.72
33163;BME280;29282;45.656;11.302;2022-08-19T10:53:58;97731.41;;;24.90;54.79
33163;BME280;29282;45.656;11.302;2022-08-19T10:56:24;97725.03;;;24.90;54.83
33163;BME280;29282;45.656;11.302;2022-08-19T10:59:09;97725.84;;;24.90;54.74
33163;BME280;29282;45.656;11.302;2022-08-19T11:01:35;97721.09;;;24.91;54.69
33163;BME280;29282;45.656;11.302;2022-08-19T11:04:03;97725.44;;;24.92;54.61
33163;BME280;29282;45.656;11.302;2022-08-19T11:06:29;97720.69;;;24.92;54.72
33163;BME280;29282;45.656;11.302;2022-08-19T11:08:56;97729.81;;;24.93;54.78
33163;BME280;29282;45.656;11.302;2022-08-19T11:11:22;97718.72;;;24.93;54.65
33163;BME280;29282;45.656;11.302;2022-08-19T11:13:48;97721.50;;;24.93;54.79
33163;BME280;29282;45.656;11.302;2022-08-19T11:16:18;97715.94;;;24.93;54.77
33163;BME280;29282;45.656;11.302;2022-08-19T11:18:47;97724.25;;;24.93;54.67
33163;BME280;29282;45.656;11.302;2022-08-19T11:21:20;97723.47;;;24.92;54.69
33163;BME280;29282;45.656;11.302;2022-08-19T11:23:49;97719.50;;;24.93;54.75
33163;BME280;29282;45.656;11.302;2022-08-19T11:26:16;97723.09;;;24.94;54.64
33163;BME280;29282;45.656;11.302;2022-08-19T11:28:43;97719.13;;;24.95;54.79
33163;BME280;29282;45.656;11.302;2022-08-19T11:31:19;97711.22;;;24.97;54.64
33163;BME280;29282;45.656;11.302;2022-08-19T11:33:45;97715.59;;;25.01;54.75
33163;BME280;29282;45.656;11.302;2022-08-19T11:36:12;97732.22;;;25.05;54.70
33163;BME280;29282;45.656;11.302;2022-08-19T11:38:38;97720.72;;;25.06;54.87
33163;BME280;29282;45.656;11.302;2022-08-19T11:41:06;97734.59;;;25.06;54.80
33163;BME280;29282;45.656;11.302;2022-08-19T11:43:35;97727.47;;;25.05;54.74
33163;BME280;29282;45.656;11.302;2022-08-19T11:46:06;97733.00;;;25.05;54.97
33163;BME280;29282;45.656;11.302;2022-08-19T11:48:33;97725.09;;;25.04;55.09
33163;BME280;29282;45.656;11.302;2022-08-19T11:51:04;97731.81;;;25.06;54.90
33163;BME280;29282;45.656;11.302;2022-08-19T11:53:35;97727.88;;;25.07;54.90
33163;BME280;29282;45.656;11.302;2022-08-19T11:56:02;97731.44;;;25.08;54.99
33163;BME280;29282;45.656;11.302;2022-08-19T11:58:28;97736.97;;;25.08;54.89
33163;BME280;29282;45.656;11.302;2022-08-19T12:00:54;97731.44;;;25.08;55.01
33163;BME280;29282;45.656;11.302;2022-08-19T12:03:20;97740.94;;;25.07;55.06
33163;BME280;29282;45.656;11.302;2022-08-19T12:05:46;97729.84;;;25.07;54.98
33163;BME280;29282;45.656;11.302;2022-08-19T12:08:12;97733.41;;;25.07;54.85
33163;BME280;29282;45.656;11.302;2022-08-19T12:10:38;97745.28;;;25.08;54.80
33163;BME280;29282;45.656;11.302;2022-08-19T12:13:04;97742.53;;;25.08;54.68
33163;BME280;29282;45.656;11.302;2022-08-19T12:15:38;97745.72;;;25.10;54.76
33163;BME280;29282;45.656;11.302;2022-08-19T12:18:06;97749.28;;;25.11;54.92
33163;BME280;29282;45.656;11.302;2022-08-19T12:20:35;97757.22;;;25.12;54.86
33163;BME280;29282;45.656;11.302;2022-08-19T12:23:01;97759.97;;;25.12;54.97
33163;BME280;29282;45.656;11.302;2022-08-19T12:25:27;97760.41;;;25.14;54.82
33163;BME280;29282;45.656;11.302;2022-08-19T12:27:52;97765.16;;;25.14;55.02
33163;BME280;29282;45.656;11.302;2022-08-19T12:30:18;97771.84;;;25.13;55.21
33163;BME280;29282;45.656;11.302;2022-08-19T12:32:43;97770.28;;;25.12;54.84
33163;BME280;29282;45.656;11.302;2022-08-19T12:35:09;97769.09;;;25.13;54.82
33163;BME280;29282;45.656;11.302;2022-08-19T12:37:36;97768.28;;;25.12;54.94
33163;BME280;29282;45.656;11.302;2022-08-19T12:40:01;97767.91;;;25.14;55.03
33163;BME280;29282;45.656;11.302;2022-08-19T12:42:28;97771.06;;;25.16;54.89
33163;BME280;29282;45.656;11.302;2022-08-19T12:44:54;97778.59;;;25.15;54.83
33163;BME280;29282;45.656;11.302;2022-08-19T12:47:20;97775.84;;;25.15;54.99
33163;BME280;29282;45.656;11.302;2022-08-19T12:49:46;97780.59;;;25.15;54.93
33163;BME280;29282;45.656;11.302;2022-08-19T12:52:13;97786.91;;;25.15;54.79
33163;BME280;29282;45.656;11.302;2022-08-19T12:54:41;97785.34;;;25.14;54.80
33163;BME280;29282;45.656;11.302;2022-08-19T12:57:09;97785.34;;;25.14;54.82
33163;BME280;29282;45.656;11.302;2022-08-19T12:59:36;97783.72;;;25.13;54.85
33163;BME280;29282;45.656;11.302;2022-08-19T13:02:03;97786.13;;;25.15;54.87